KALI/ALI METAR and TAF weather

Enter ICAO airport designator
Station Type Date Time Source
KALI METAR 2018/01/22 19:53 UTC NOAA

KALI 221953Z AUTO 36011G21KT 10SM CLR 21/M06 A3006 RMK AO2 SLP179 T02111061


Station Type Date Time Source
KALI Decoded METAR 2018/01/22 19:53 UTC NOAA

ALICE INTERNATIONAL AIRPORT, TX, United States (KALI) 27-44N 098-01W 53M
Jan 22, 2018 - 02:53 PM EST / 2018.01.22 1953 UTC
Wind: from the N (360 degrees) at 13 MPH (11 KT) gusting to 24 MPH (21 KT):0
Visibility: 10 mile(s):0
Sky conditions: clear
Temperature: 70.0 F (21.1 C)
Dew Point: 21.0 F (-6.1 C)
Relative Humidity: 15%
Pressure (altimeter): 30.06 in. Hg (1017 hPa)
ob: KALI 221953Z AUTO 36011G21KT 10SM CLR 21/M06 A3006 RMK AO2 SLP179 T02111061
cycle: 20

Station Type Date Time Source
KALI TAF 2018/01/22 18:36 UTC NOAA

TAF KALI 221734Z 2218/2318 35015G22KT P6SM SCT250
FM222200 35009KT P6SM SCT250
FM231500 05005KT P6SM SCT250


Example: see airport list